createdAt,value
2023-01-17T00:00:00.741Z,94.3
2023-01-17T00:10:00.690Z,93.7
2023-01-17T00:20:00.738Z,93.2
2023-01-17T00:30:00.684Z,93.1
2023-01-17T00:40:00.686Z,93.9
2023-01-17T00:50:00.685Z,93.7
2023-01-17T01:00:00.712Z,94.2
2023-01-17T01:10:00.869Z,94.4
2023-01-17T01:20:01.299Z,94.6
2023-01-17T01:30:01.124Z,94.4
2023-01-17T01:40:01.271Z,95.1
2023-01-17T01:50:00.965Z,95.0
2023-01-17T02:00:01.122Z,94.8
2023-01-17T02:10:00.864Z,94.7
2023-01-17T02:20:00.707Z,94.4
2023-01-17T02:30:00.698Z,93.4
2023-01-17T02:40:00.655Z,93.2
2023-01-17T02:50:00.706Z,93.2
2023-01-17T03:00:00.695Z,93.2
2023-01-17T03:10:00.655Z,93.6
2023-01-17T03:20:00.901Z,94.0
2023-01-17T03:30:00.816Z,93.4
2023-01-17T03:40:00.842Z,93.8
2023-01-17T03:50:00.983Z,94.1
2023-01-17T04:00:01.096Z,94.0
2023-01-17T04:10:01.539Z,94.0
2023-01-17T04:20:00.976Z,93.9
2023-01-17T04:30:00.881Z,93.4
2023-01-17T04:40:01.040Z,93.8
2023-01-17T04:50:00.770Z,93.4
2023-01-17T05:00:00.700Z,94.0
2023-01-17T05:10:00.685Z,94.6
2023-01-17T05:20:00.684Z,94.8
2023-01-17T05:30:00.728Z,93.9
2023-01-17T05:40:00.698Z,92.8
2023-01-17T05:50:00.665Z,92.9
2023-01-17T06:00:00.701Z,93.1
2023-01-17T06:10:00.657Z,93.1
2023-01-17T06:20:00.671Z,93.3
2023-01-17T06:30:00.731Z,93.7
2023-01-17T06:40:00.723Z,94.4
2023-01-17T06:50:00.683Z,92.8
2023-01-17T07:00:00.685Z,92.8
2023-01-17T07:10:00.698Z,93.2
2023-01-17T07:20:00.718Z,92.8
2023-01-17T07:30:00.770Z,92.7
2023-01-17T07:40:01.273Z,92.9
2023-01-17T07:50:01.121Z,92.6
2023-01-17T08:00:01.040Z,92.4
2023-01-17T08:10:01.251Z,93.1
2023-01-17T08:20:00.948Z,92.9
2023-01-17T08:30:01.094Z,92.1
2023-01-17T08:40:01.279Z,91.9
2023-01-17T08:50:00.395Z,90.6
2023-01-17T09:10:00.730Z,89.3
2023-01-17T09:40:00.654Z,74.9
2023-01-17T09:50:00.623Z,78.2
2023-01-17T10:00:03.486Z,75.1
2023-01-17T10:10:00.606Z,76.2
2023-01-17T10:20:00.677Z,76.8
2023-01-17T10:30:00.314Z,74.3
2023-01-17T10:40:00.341Z,72.2
2023-01-17T10:50:00.248Z,71.7
2023-01-17T11:00:00.374Z,70.6
2023-01-17T11:10:00.263Z,67.5
2023-01-17T11:20:00.269Z,65.2
2023-01-17T11:30:00.301Z,62.6
2023-01-17T11:40:00.349Z,62.4
2023-01-17T11:50:00.263Z,59.8
2023-01-17T12:00:00.263Z,54.6
2023-01-17T12:10:00.288Z,56.0
2023-01-17T12:20:00.274Z,56.3
2023-01-17T12:30:00.277Z,54.9
2023-01-17T12:40:00.267Z,56.2
2023-01-17T12:50:00.277Z,62.8
2023-01-17T13:00:00.269Z,64.1
2023-01-17T13:10:00.264Z,65.1
2023-01-17T13:20:00.285Z,66.0
2023-01-17T13:30:00.284Z,67.6
2023-01-17T13:40:00.317Z,68.0
2023-01-17T13:50:00.374Z,70.6
2023-01-17T14:00:00.386Z,70.6
2023-01-17T14:10:00.372Z,72.1
2023-01-17T14:20:00.373Z,73.8
2023-01-17T14:30:00.479Z,74.0
2023-01-17T14:40:00.462Z,74.0
2023-01-17T14:50:00.509Z,75.6
2023-01-17T15:00:00.424Z,74.5
2023-01-17T15:10:00.277Z,75.4
2023-01-17T15:20:00.286Z,76.5
2023-01-17T15:30:00.267Z,78.6
2023-01-17T15:40:00.270Z,79.0
2023-01-17T15:50:00.309Z,79.4
2023-01-17T16:00:00.284Z,79.1
2023-01-17T16:10:00.295Z,79.5
2023-01-17T16:20:00.372Z,80.0
2023-01-17T16:30:00.299Z,80.8
2023-01-17T16:40:00.369Z,81.3
2023-01-17T16:50:00.437Z,82.6
2023-01-17T17:00:00.264Z,83.8
2023-01-17T17:10:00.674Z,85.5
2023-01-17T17:20:00.915Z,85.1
2023-01-17T17:30:00.424Z,86.2
2023-01-17T17:40:00.474Z,87.1
2023-01-17T17:50:00.383Z,88.2
2023-01-17T18:00:00.347Z,89.0
2023-01-17T18:10:00.353Z,89.5
2023-01-17T18:20:00.321Z,89.2
2023-01-17T18:30:00.348Z,89.2
2023-01-17T18:40:00.344Z,89.8
2023-01-17T18:50:00.335Z,90.1
2023-01-17T19:00:00.339Z,90.2
2023-01-17T19:10:00.343Z,88.7
2023-01-17T19:20:00.337Z,88.7
2023-01-17T19:30:00.403Z,90.0
2023-01-17T19:40:00.346Z,90.9
2023-01-17T19:50:00.307Z,90.7
2023-01-17T20:00:00.337Z,90.6
2023-01-17T20:10:00.391Z,90.8
2023-01-17T20:20:00.312Z,91.0
2023-01-17T20:30:11.071Z,91.2
2023-01-17T20:40:00.322Z,90.9
2023-01-17T20:50:00.325Z,91.4
2023-01-17T21:00:00.343Z,91.3
2023-01-17T21:10:00.482Z,91.5
2023-01-17T21:20:00.510Z,91.3
2023-01-17T21:30:00.499Z,90.7
2023-01-17T21:40:00.461Z,90.5
2023-01-17T21:50:00.577Z,90.9
2023-01-17T22:00:00.418Z,91.5
2023-01-17T22:10:00.965Z,91.6
2023-01-17T22:20:00.471Z,92.0
2023-01-17T22:30:00.396Z,91.8
2023-01-17T22:40:00.358Z,91.8
2023-01-17T22:50:00.348Z,92.5
2023-01-17T23:00:00.322Z,93.2
2023-01-17T23:10:00.340Z,94.0
2023-01-17T23:20:00.323Z,94.5
2023-01-17T23:30:00.331Z,94.4
2023-01-17T23:40:00.315Z,94.8
2023-01-17T23:50:00.329Z,94.6
